createdAt,value
2017-05-18T00:00:49.230Z,99.99
2017-05-18T00:01:49.220Z,99.99
2017-05-18T00:02:49.217Z,99.99
2017-05-18T00:03:49.205Z,99.99
2017-05-18T00:04:49.194Z,99.99
2017-05-18T00:05:49.180Z,99.99
2017-05-18T00:06:49.177Z,99.99
2017-05-18T00:07:49.166Z,99.99
2017-05-18T00:08:49.150Z,99.99
2017-05-18T00:09:49.142Z,99.99
2017-05-18T00:10:49.131Z,99.99
2017-05-18T00:11:49.121Z,99.99
2017-05-18T00:12:49.111Z,99.99
2017-05-18T00:13:49.102Z,99.99
2017-05-18T00:14:49.090Z,99.99
2017-05-18T00:15:48.779Z,99.99
2017-05-18T00:16:49.070Z,99.99
2017-05-18T00:17:49.061Z,99.99
2017-05-18T00:18:49.046Z,99.99
2017-05-18T00:19:49.036Z,99.99
2017-05-18T00:20:49.030Z,99.99
2017-05-18T00:21:49.022Z,99.99
2017-05-18T00:22:49.008Z,99.99
2017-05-18T00:23:48.997Z,99.99
2017-05-18T00:24:48.986Z,99.99
2017-05-18T00:25:49.038Z,99.99
2017-05-18T00:26:48.965Z,99.99
2017-05-18T00:27:48.958Z,99.99
2017-05-18T00:28:48.947Z,99.99
2017-05-18T00:29:48.934Z,99.99
2017-05-18T00:30:48.929Z,99.99
2017-05-18T00:31:48.913Z,99.99
2017-05-18T00:32:48.905Z,99.99
2017-05-18T00:33:48.894Z,99.99
2017-05-18T00:34:48.886Z,99.99
2017-05-18T00:35:48.875Z,99.99
2017-05-18T00:36:48.863Z,99.99
2017-05-18T00:37:48.854Z,99.99
2017-05-18T00:38:48.846Z,99.99
2017-05-18T00:39:48.832Z,99.99
2017-05-18T00:40:48.822Z,99.99
2017-05-18T00:41:48.819Z,99.99
2017-05-18T00:42:48.809Z,99.99
2017-05-18T00:43:48.802Z,99.99
2017-05-18T00:44:48.786Z,99.99
2017-05-18T00:45:48.779Z,99.99
2017-05-18T00:46:48.767Z,99.99
2017-05-18T00:47:48.757Z,99.99
2017-05-18T00:48:48.748Z,99.99
2017-05-18T00:49:48.737Z,99.99
2017-05-18T00:50:48.728Z,99.99
2017-05-18T00:51:48.715Z,99.99
2017-05-18T00:52:48.710Z,99.99
2017-05-18T00:53:48.699Z,99.99
2017-05-18T00:54:48.689Z,99.99
2017-05-18T00:55:48.674Z,99.99
2017-05-18T00:56:48.666Z,99.99
2017-05-18T00:57:48.659Z,99.99
2017-05-18T00:58:48.648Z,99.99
2017-05-18T00:59:48.640Z,99.99
2017-05-18T01:00:48.629Z,99.99
2017-05-18T01:01:48.618Z,99.99
2017-05-18T01:02:48.610Z,99.99
2017-05-18T01:03:48.599Z,99.99
2017-05-18T01:04:48.590Z,99.99
2017-05-18T01:05:48.580Z,99.99
2017-05-18T01:06:48.569Z,99.99
2017-05-18T01:07:48.562Z,99.99
2017-05-18T01:08:48.547Z,99.99
2017-05-18T01:09:48.540Z,99.99
2017-05-18T01:10:48.533Z,99.99
2017-05-18T01:11:48.518Z,99.99
2017-05-18T01:12:48.510Z,99.99
2017-05-18T01:13:48.497Z,99.99
2017-05-18T01:14:48.488Z,99.99
2017-05-18T01:15:48.480Z,99.99
2017-05-18T01:16:48.473Z,99.99
2017-05-18T01:17:48.456Z,99.99
2017-05-18T01:18:48.451Z,99.99
2017-05-18T01:19:48.440Z,99.99
2017-05-18T01:20:48.429Z,99.99
2017-05-18T01:21:48.421Z,99.99
2017-05-18T01:22:48.409Z,99.99
2017-05-18T01:23:48.105Z,99.99
2017-05-18T01:24:48.387Z,99.99
2017-05-18T01:25:48.378Z,99.99
2017-05-18T01:26:48.371Z,99.99
2017-05-18T01:27:48.360Z,99.99
2017-05-18T01:28:48.346Z,99.99
2017-05-18T01:29:48.338Z,99.99
2017-05-18T01:30:48.329Z,99.99
2017-05-18T01:31:48.318Z,99.99
2017-05-18T01:32:48.308Z,99.99
2017-05-18T01:33:48.303Z,99.99
2017-05-18T01:34:48.287Z,99.99
2017-05-18T01:35:48.278Z,99.99
2017-05-18T01:36:48.265Z,99.99
2017-05-18T01:37:48.262Z,99.99
2017-05-18T01:38:48.245Z,99.99
2017-05-18T01:39:48.299Z,99.99
2017-05-18T01:40:48.253Z,99.99
2017-05-18T01:41:48.215Z,99.99
2017-05-18T01:42:48.212Z,99.99
2017-05-18T01:43:48.199Z,99.99
2017-05-18T01:44:48.187Z,99.99
2017-05-18T01:45:48.177Z,99.99
2017-05-18T01:46:48.167Z,99.99
2017-05-18T01:47:48.154Z,99.99
2017-05-18T01:48:48.146Z,99.99
2017-05-18T01:49:48.136Z,99.99
2017-05-18T01:50:48.122Z,99.99
2017-05-18T01:51:48.123Z,99.99
2017-05-18T01:52:48.102Z,99.99
2017-05-18T01:53:48.097Z,99.99
2017-05-18T01:54:48.142Z,99.99
2017-05-18T01:55:48.068Z,99.99
2017-05-18T01:56:48.063Z,99.99
2017-05-18T01:57:48.047Z,99.99
2017-05-18T01:58:48.041Z,99.99
2017-05-18T01:59:48.035Z,99.99
2017-05-18T02:00:48.018Z,99.99
2017-05-18T02:01:48.008Z,99.99
2017-05-18T02:02:47.994Z,99.99
2017-05-18T02:03:47.990Z,99.99
2017-05-18T02:04:47.986Z,99.99
2017-05-18T02:05:47.963Z,99.99
2017-05-18T02:06:47.968Z,99.99
2017-05-18T02:07:47.944Z,99.99
2017-05-18T02:08:47.935Z,99.99
2017-05-18T02:09:47.924Z,99.99
2017-05-18T02:10:47.912Z,99.99
2017-05-18T02:11:47.904Z,99.99
2017-05-18T02:12:47.895Z,99.99
2017-05-18T02:13:47.888Z,99.99
2017-05-18T02:14:47.875Z,99.99
2017-05-18T02:15:47.863Z,99.99
2017-05-18T02:16:47.850Z,99.99
2017-05-18T02:17:47.843Z,99.99
2017-05-18T02:18:47.833Z,99.99
2017-05-18T02:19:47.824Z,99.99
2017-05-18T02:20:47.812Z,99.99
2017-05-18T02:21:47.804Z,99.99
2017-05-18T02:22:47.798Z,99.99
2017-05-18T02:23:47.778Z,99.99
2017-05-18T02:24:47.768Z,99.99
2017-05-18T02:25:47.757Z,99.99
2017-05-18T02:26:47.751Z,99.99
2017-05-18T02:27:47.739Z,99.99
2017-05-18T02:28:47.730Z,99.99
2017-05-18T02:29:47.722Z,99.99
2017-05-18T02:30:47.706Z,99.99
2017-05-18T02:31:47.698Z,99.99
2017-05-18T02:32:47.683Z,99.99
2017-05-18T02:33:47.673Z,99.99
2017-05-18T02:34:47.663Z,99.99
2017-05-18T02:35:47.352Z,99.99
2017-05-18T02:36:47.642Z,99.99
2017-05-18T02:37:47.632Z,99.99
2017-05-18T02:38:47.623Z,99.99
2017-05-18T02:39:47.612Z,99.99
2017-05-18T02:40:47.603Z,99.99
2017-05-18T02:41:47.589Z,99.99
2017-05-18T02:42:47.582Z,99.99
2017-05-18T02:43:47.568Z,99.99
2017-05-18T02:44:47.563Z,99.99
2017-05-18T02:45:47.552Z,99.99
2017-05-18T02:46:47.537Z,99.99
2017-05-18T02:47:47.527Z,99.99
2017-05-18T02:48:47.219Z,99.99
2017-05-18T02:49:47.506Z,99.99
2017-05-18T02:50:47.500Z,99.99
2017-05-18T02:51:47.487Z,99.99
2017-05-18T02:52:47.474Z,99.99
2017-05-18T02:53:47.467Z,99.99
2017-05-18T02:54:47.461Z,99.99
2017-05-18T02:55:47.447Z,99.99
2017-05-18T02:56:47.437Z,99.99
2017-05-18T02:57:47.423Z,99.99
2017-05-18T02:58:47.415Z,99.99
2017-05-18T02:59:47.402Z,99.99
2017-05-18T03:00:47.394Z,99.99
2017-05-18T03:01:47.384Z,99.99
2017-05-18T03:02:47.376Z,99.99
2017-05-18T03:03:47.363Z,99.99
2017-05-18T03:04:47.351Z,99.99
2017-05-18T03:05:47.342Z,99.99
2017-05-18T03:06:47.332Z,99.99
2017-05-18T03:07:47.318Z,99.99
2017-05-18T03:08:47.308Z,99.99
2017-05-18T03:09:47.299Z,99.99
2017-05-18T03:10:47.291Z,99.99
2017-05-18T03:11:47.279Z,99.99
2017-05-18T03:12:47.266Z,99.99
2017-05-18T03:13:47.260Z,99.99
2017-05-18T03:14:47.250Z,99.99
2017-05-18T03:15:47.236Z,99.99
2017-05-18T03:16:47.224Z,99.99
2017-05-18T03:17:47.214Z,99.99
2017-05-18T03:18:47.203Z,99.99
2017-05-18T03:19:47.197Z,99.99
2017-05-18T03:20:47.185Z,99.99
2017-05-18T03:21:47.180Z,99.99
2017-05-18T03:22:47.165Z,99.99
2017-05-18T03:23:47.155Z,99.99
2017-05-18T03:24:47.144Z,99.99
2017-05-18T03:25:47.129Z,99.99
2017-05-18T03:26:47.121Z,99.99
2017-05-18T03:27:47.114Z,99.99
2017-05-18T03:28:47.099Z,99.99
2017-05-18T03:29:47.090Z,99.99
2017-05-18T03:30:47.079Z,99.99
2017-05-18T03:31:47.119Z,99.99
2017-05-18T03:32:47.054Z,99.99
2017-05-18T03:33:47.045Z,99.99
2017-05-18T03:34:47.038Z,99.99
2017-05-18T03:35:47.025Z,99.99
2017-05-18T03:36:47.019Z,99.99
2017-05-18T03:37:47.005Z,99.99
2017-05-18T03:38:47.000Z,99.99
2017-05-18T03:39:46.986Z,99.99
2017-05-18T03:40:46.973Z,99.99
2017-05-18T03:41:46.963Z,99.99
2017-05-18T03:42:46.950Z,99.99
2017-05-18T03:43:46.941Z,99.99
2017-05-18T03:44:46.928Z,99.99
2017-05-18T03:45:46.918Z,99.99
2017-05-18T03:46:46.906Z,99.99
2017-05-18T03:47:46.897Z,99.99
2017-05-18T03:48:46.887Z,99.99
2017-05-18T03:49:46.878Z,99.99
2017-05-18T03:50:46.866Z,99.99
2017-05-18T03:51:46.856Z,99.99
2017-05-18T03:52:46.852Z,99.99
2017-05-18T03:53:46.837Z,99.99
2017-05-18T03:54:46.827Z,99.99
2017-05-18T03:55:46.812Z,99.99
2017-05-18T03:56:46.803Z,99.99
2017-05-18T03:57:46.792Z,99.99
2017-05-18T03:58:46.780Z,99.99
2017-05-18T03:59:46.773Z,99.99
2017-05-18T04:00:46.762Z,99.99
2017-05-18T04:01:46.750Z,99.99
2017-05-18T04:02:46.743Z,99.99
2017-05-18T04:03:46.729Z,99.99
2017-05-18T04:04:46.717Z,99.99
2017-05-18T04:05:46.712Z,99.99
2017-05-18T04:06:46.698Z,99.99
2017-05-18T04:07:46.689Z,99.99
2017-05-18T04:08:46.684Z,99.99
2017-05-18T04:09:46.371Z,99.99
2017-05-18T04:10:46.656Z,99.99
2017-05-18T04:11:46.646Z,99.99
2017-05-18T04:12:46.636Z,99.99
2017-05-18T04:13:46.625Z,99.99
2017-05-18T04:14:46.615Z,99.99
2017-05-18T04:15:46.605Z,99.99
2017-05-18T04:16:46.595Z,99.99
2017-05-18T04:17:46.589Z,99.99
2017-05-18T04:18:46.576Z,99.99
2017-05-18T04:19:46.566Z,99.99
2017-05-18T04:20:46.550Z,99.99
2017-05-18T04:21:46.542Z,99.99
2017-05-18T04:22:46.533Z,99.99
2017-05-18T04:23:46.523Z,99.99
2017-05-18T04:24:46.514Z,99.99
2017-05-18T04:25:46.499Z,99.99
2017-05-18T04:26:46.488Z,99.99
2017-05-18T04:27:46.481Z,99.99
2017-05-18T04:28:46.474Z,99.99
2017-05-18T04:29:46.464Z,99.99
2017-05-18T04:30:46.455Z,99.99
2017-05-18T04:31:46.442Z,99.99
2017-05-18T04:32:46.433Z,99.99
2017-05-18T04:33:46.421Z,99.99
2017-05-18T04:34:46.408Z,99.99
2017-05-18T04:35:46.400Z,99.99
2017-05-18T04:36:46.393Z,99.99
2017-05-18T04:37:46.079Z,99.99
2017-05-18T04:38:46.370Z,99.99
2017-05-18T04:39:46.358Z,99.99
2017-05-18T04:40:46.350Z,99.99
2017-05-18T04:41:46.342Z,99.99
2017-05-18T04:42:46.327Z,99.99
2017-05-18T04:43:46.317Z,99.99
2017-05-18T04:44:46.308Z,99.99
2017-05-18T04:45:46.297Z,99.99
2017-05-18T04:46:46.287Z,99.99
2017-05-18T04:47:46.278Z,99.99
2017-05-18T04:48:46.270Z,99.99
2017-05-18T04:49:46.258Z,99.99
2017-05-18T04:50:46.245Z,99.99
2017-05-18T04:51:46.237Z,99.99
2017-05-18T04:52:46.226Z,99.99
2017-05-18T04:53:46.214Z,99.99
2017-05-18T04:54:46.210Z,99.99
2017-05-18T04:55:46.197Z,99.99
2017-05-18T04:56:46.188Z,99.99
2017-05-18T04:57:46.176Z,99.99
2017-05-18T04:58:46.166Z,99.99
2017-05-18T04:59:46.159Z,99.99
2017-05-18T05:00:46.149Z,99.99
2017-05-18T05:01:46.151Z,99.99
2017-05-18T05:02:46.129Z,99.99
2017-05-18T05:03:46.118Z,99.99
2017-05-18T05:04:46.114Z,99.99
2017-05-18T05:05:46.101Z,99.99
2017-05-18T05:06:46.093Z,99.99
2017-05-18T05:07:46.083Z,99.99
2017-05-18T05:08:46.073Z,99.99
2017-05-18T05:09:46.065Z,99.99
2017-05-18T05:10:46.055Z,99.99
2017-05-18T05:11:46.046Z,99.99
2017-05-18T05:12:46.037Z,99.99
2017-05-18T05:13:46.026Z,99.99
2017-05-18T05:14:46.017Z,99.99
2017-05-18T05:15:46.010Z,99.99
2017-05-18T05:16:46.000Z,99.99
2017-05-18T05:17:45.989Z,99.99
2017-05-18T05:18:45.982Z,99.99
2017-05-18T05:19:45.974Z,99.99
2017-05-18T05:20:45.962Z,99.99
2017-05-18T05:21:45.956Z,99.99
2017-05-18T05:22:45.945Z,99.99
2017-05-18T05:23:45.933Z,99.99
2017-05-18T05:24:45.927Z,99.99
2017-05-18T05:25:45.923Z,99.99
2017-05-18T05:26:45.909Z,99.99
2017-05-18T05:27:45.900Z,99.99
2017-05-18T05:28:45.891Z,99.99
2017-05-18T05:29:45.883Z,99.99
2017-05-18T05:30:45.870Z,99.99
2017-05-18T05:31:45.865Z,99.99
2017-05-18T05:32:45.858Z,99.99
2017-05-18T05:33:45.846Z,99.99
2017-05-18T05:34:45.838Z,99.99
2017-05-18T05:35:45.830Z,99.99
2017-05-18T05:36:45.819Z,99.99
2017-05-18T05:37:45.818Z,99.99
2017-05-18T05:38:45.800Z,99.99
2017-05-18T05:39:45.792Z,99.99
2017-05-18T05:40:45.778Z,99.99
2017-05-18T05:41:45.776Z,99.99
2017-05-18T05:42:45.766Z,99.99
2017-05-18T05:43:45.758Z,99.99
2017-05-18T05:44:45.746Z,99.99
2017-05-18T05:45:45.737Z,99.99
2017-05-18T05:46:45.728Z,99.99
2017-05-18T05:47:45.718Z,99.99
2017-05-18T05:48:45.711Z,99.99
2017-05-18T05:49:45.703Z,99.99
2017-05-18T05:50:45.694Z,99.99
2017-05-18T05:51:45.684Z,99.99
2017-05-18T05:52:45.677Z,99.99
2017-05-18T05:53:45.665Z,99.99
2017-05-18T05:54:45.656Z,99.99
2017-05-18T05:55:45.647Z,99.99
2017-05-18T05:56:45.639Z,99.99
2017-05-18T05:57:45.628Z,99.99
2017-05-18T05:58:45.621Z,99.99
2017-05-18T05:59:45.611Z,99.99
2017-05-18T06:00:45.604Z,99.99
2017-05-18T06:01:45.596Z,99.99
2017-05-18T06:02:45.584Z,99.99
2017-05-18T06:03:45.577Z,99.99
2017-05-18T06:04:45.572Z,99.99
2017-05-18T06:05:45.559Z,99.99
2017-05-18T06:06:45.555Z,99.99
2017-05-18T06:07:45.545Z,99.99
2017-05-18T06:08:45.535Z,99.99
2017-05-18T06:09:45.540Z,99.99
2017-05-18T06:10:45.518Z,99.99
2017-05-18T06:11:45.507Z,99.99
2017-05-18T06:12:45.504Z,99.99
2017-05-18T06:13:45.493Z,99.99
2017-05-18T06:14:45.485Z,99.99
2017-05-18T06:15:45.478Z,99.99
2017-05-18T06:16:45.475Z,99.99
2017-05-18T06:17:45.459Z,99.99
2017-05-18T06:18:45.456Z,99.99
2017-05-18T06:19:45.468Z,99.99
2017-05-18T06:20:45.437Z,99.99
2017-05-18T06:21:45.428Z,99.99
2017-05-18T06:22:45.418Z,99.99
2017-05-18T06:23:45.421Z,99.99
2017-05-18T06:24:45.407Z,99.99
2017-05-18T06:25:45.393Z,99.99
2017-05-18T06:26:45.390Z,99.99
2017-05-18T06:27:45.381Z,99.99
2017-05-18T06:28:45.375Z,99.99
2017-05-18T06:29:45.367Z,99.99
2017-05-18T06:30:45.357Z,99.99
2017-05-18T06:31:45.351Z,99.99
2017-05-18T06:32:45.339Z,99.99
2017-05-18T06:33:45.328Z,99.99
2017-05-18T06:34:45.327Z,99.99
2017-05-18T06:35:45.314Z,99.99
2017-05-18T06:36:45.308Z,99.99
2017-05-18T06:37:45.303Z,99.99
2017-05-18T06:38:45.294Z,99.99
2017-05-18T06:39:45.284Z,99.99
2017-05-18T06:40:45.279Z,99.99
2017-05-18T06:41:45.268Z,99.99
2017-05-18T06:42:45.260Z,99.99
2017-05-18T06:43:45.253Z,99.99
2017-05-18T06:44:45.248Z,99.99
2017-05-18T06:45:45.236Z,99.99
2017-05-18T06:46:45.231Z,99.99
2017-05-18T06:47:45.218Z,99.99
2017-05-18T06:48:45.212Z,99.99
2017-05-18T06:49:45.204Z,99.99
2017-05-18T06:50:45.199Z,99.99
2017-05-18T06:51:45.193Z,99.99
2017-05-18T06:52:45.187Z,99.99
2017-05-18T06:53:45.173Z,99.99
2017-05-18T06:54:45.171Z,99.99
2017-05-18T06:55:45.162Z,99.99
2017-05-18T06:56:45.152Z,99.99
2017-05-18T06:57:45.149Z,99.99
2017-05-18T06:58:45.139Z,99.99
2017-05-18T06:59:45.134Z,99.99
2017-05-18T07:00:45.190Z,99.99
2017-05-18T07:01:45.117Z,99.99
2017-05-18T07:02:45.119Z,99.99
2017-05-18T07:03:45.107Z,99.99
2017-05-18T07:04:45.094Z,99.99
2017-05-18T07:05:45.088Z,99.99
2017-05-18T07:06:45.080Z,99.99
2017-05-18T07:07:45.074Z,99.99
2017-05-18T07:08:45.066Z,99.99
2017-05-18T07:09:45.058Z,99.99
2017-05-18T07:10:45.050Z,99.99
2017-05-18T07:11:45.050Z,99.99
2017-05-18T07:12:45.033Z,99.99
2017-05-18T07:13:45.033Z,99.99
2017-05-18T07:14:45.022Z,99.99
2017-05-18T07:15:45.010Z,99.99
2017-05-18T07:16:45.004Z,99.99
2017-05-18T07:17:44.994Z,99.99
2017-05-18T07:18:44.988Z,99.99
2017-05-18T07:19:44.982Z,99.99
2017-05-18T07:20:44.972Z,99.99
2017-05-18T07:21:44.968Z,99.52
2017-05-18T07:22:44.959Z,99.85
2017-05-18T07:23:44.952Z,99.99
2017-05-18T07:24:44.942Z,99.99
2017-05-18T07:25:44.935Z,99.99
2017-05-18T07:26:44.930Z,99.71
2017-05-18T07:27:44.925Z,99.99
2017-05-18T07:28:44.915Z,99.61
2017-05-18T07:29:44.913Z,99.61
2017-05-18T07:30:44.901Z,99.47
2017-05-18T07:31:44.894Z,99.08
2017-05-18T07:32:44.886Z,98.85
2017-05-18T07:33:44.881Z,98.8
2017-05-18T07:34:44.875Z,98.56
2017-05-18T07:35:44.868Z,99.57
2017-05-18T07:36:44.865Z,98.94
2017-05-18T07:37:44.855Z,98.9
2017-05-18T07:38:44.850Z,98.66
2017-05-18T07:39:44.842Z,98.33
2017-05-18T07:40:44.838Z,97.75
2017-05-18T07:41:44.835Z,97.52
2017-05-18T07:42:44.830Z,97.04
2017-05-18T07:43:44.826Z,96.89
2017-05-18T07:44:44.823Z,96.22
2017-05-18T07:45:44.816Z,96.18
2017-05-18T07:46:44.815Z,95.36
2017-05-18T07:47:44.808Z,95.21
2017-05-18T07:48:44.806Z,94.84
2017-05-18T07:49:44.502Z,94.59
2017-05-18T07:50:44.793Z,94.21
2017-05-18T07:51:44.493Z,94.31
2017-05-18T07:52:44.792Z,93.25
2017-05-18T07:53:44.485Z,93.59
2017-05-18T07:54:44.483Z,92.86
2017-05-18T07:55:44.838Z,93.06
2017-05-18T07:56:44.784Z,92.86
2017-05-18T07:57:44.777Z,92.52
2017-05-18T07:58:44.774Z,92.29
2017-05-18T07:59:44.774Z,91.8
2017-05-18T08:00:44.769Z,91.94
2017-05-18T08:01:44.775Z,91.52
2017-05-18T08:02:44.763Z,90.59
2017-05-18T08:03:44.768Z,91.03
2017-05-18T08:04:44.759Z,90.2
2017-05-18T08:05:44.761Z,90.11
2017-05-18T08:06:44.757Z,89.82
2017-05-18T08:07:44.756Z,89.09
2017-05-18T08:08:44.788Z,88.95
2017-05-18T08:09:44.759Z,88.95
2017-05-18T08:10:44.754Z,88.43
2017-05-18T08:11:44.755Z,87.76
2017-05-18T08:12:44.750Z,87.67
2017-05-18T08:13:44.751Z,87.15
2017-05-18T08:14:44.748Z,87.29
2017-05-18T08:15:44.747Z,87.1
2017-05-18T08:16:44.745Z,87.25
2017-05-18T08:17:44.746Z,87.21
2017-05-18T08:18:44.745Z,87.35
2017-05-18T08:19:44.743Z,87.3
2017-05-18T08:20:44.742Z,87.15
2017-05-18T08:21:44.741Z,87.15
2017-05-18T08:22:44.739Z,86.75
2017-05-18T08:23:44.738Z,86.55
2017-05-18T08:24:44.741Z,86.78
2017-05-18T08:25:44.736Z,86.49
2017-05-18T08:26:44.733Z,86
2017-05-18T08:27:44.734Z,85.75
2017-05-18T08:28:44.741Z,85.56
2017-05-18T08:29:44.733Z,85.03
2017-05-18T12:27:28.166Z,99.99
2017-05-18T12:28:28.228Z,99.99
2017-05-18T12:29:27.925Z,99.99
2017-05-18T12:30:28.217Z,99.99
2017-05-18T12:31:28.203Z,99.99
2017-05-18T12:32:28.202Z,99.99
2017-05-18T12:33:28.195Z,99.99
2017-05-18T12:34:27.873Z,99.99
2017-05-18T12:35:28.167Z,99.99
2017-05-18T12:36:28.161Z,99.99
2017-05-18T12:37:28.158Z,99.99
2017-05-18T12:38:28.151Z,99.99
2017-05-18T12:39:28.143Z,99.99
2017-05-18T12:40:28.132Z,99.99
2017-05-18T12:41:28.123Z,99.99
2017-05-18T12:42:28.113Z,99.99
2017-05-18T12:43:28.098Z,99.99
2017-05-18T12:44:28.106Z,99.99
2017-05-18T12:45:28.110Z,99.99
2017-05-18T12:46:28.073Z,99.99
2017-05-18T12:47:28.063Z,99.99
2017-05-18T12:48:28.058Z,99.99
2017-05-18T12:49:28.047Z,99.99
2017-05-18T12:50:28.047Z,99.99
2017-05-18T12:51:28.037Z,99.99
2017-05-18T12:52:27.924Z,99.99
2017-05-18T12:53:28.012Z,99.99
2017-05-18T12:54:28.014Z,99.99
2017-05-18T12:55:28.000Z,99.99
2017-05-18T12:56:27.996Z,99.99
2017-05-18T12:57:27.980Z,99.99
2017-05-18T12:58:27.967Z,99.99
2017-05-18T12:59:27.968Z,99.99
2017-05-18T13:00:27.952Z,99.99
2017-05-18T13:01:27.944Z,99.99
2017-05-18T13:02:27.934Z,99.99
2017-05-18T13:03:27.933Z,99.99
2017-05-18T13:04:27.923Z,99.99
2017-05-18T13:05:27.907Z,99.99
2017-05-18T13:06:27.907Z,99.99
2017-05-18T13:07:27.896Z,99.99
2017-05-18T13:08:27.881Z,99.99
2017-05-18T13:09:27.877Z,99.99
2017-05-18T13:10:27.564Z,99.99
2017-05-18T13:11:27.866Z,99.99
2017-05-18T13:12:27.848Z,99.99
2017-05-18T13:13:27.840Z,99.99
2017-05-18T13:14:27.835Z,99.99
2017-05-18T13:15:27.822Z,99.99
2017-05-18T13:16:27.818Z,99.99
2017-05-18T13:17:27.813Z,99.99
2017-05-18T13:18:27.797Z,99.99
2017-05-18T13:19:27.789Z,99.99
2017-05-18T13:20:27.783Z,99.99
2017-05-18T13:21:27.784Z,99.99
2017-05-18T13:22:27.767Z,99.99
2017-05-18T13:23:27.765Z,99.99
2017-05-18T13:24:27.751Z,99.99
2017-05-18T13:25:27.739Z,99.99
2017-05-18T13:26:27.735Z,99.99
2017-05-18T13:27:27.716Z,99.99
2017-05-18T13:28:27.715Z,99.99
2017-05-18T13:29:27.708Z,99.99
2017-05-18T13:30:27.696Z,99.99
2017-05-18T13:31:27.686Z,99.99
2017-05-18T13:32:27.673Z,99.99
2017-05-18T13:33:27.663Z,99.99
2017-05-18T13:34:27.652Z,99.99
2017-05-18T13:35:27.650Z,99.99
2017-05-18T13:36:27.694Z,99.99
2017-05-18T13:37:27.628Z,99.99
2017-05-18T13:38:27.624Z,99.99
2017-05-18T13:39:27.610Z,99.99
2017-05-18T13:40:27.607Z,99.99
2017-05-18T13:41:27.590Z,99.99
2017-05-18T13:42:27.589Z,99.99
2017-05-18T13:43:27.576Z,99.99
2017-05-18T13:44:27.575Z,99.99
2017-05-18T13:45:27.562Z,99.99
2017-05-18T13:46:27.548Z,99.99
2017-05-18T13:47:27.539Z,99.99
2017-05-18T13:48:27.235Z,99.99
2017-05-18T13:49:27.524Z,99.99
2017-05-18T13:50:27.520Z,99.99
2017-05-18T13:51:27.511Z,99.99
2017-05-18T13:52:27.195Z,99.99
2017-05-18T13:53:27.489Z,99.99
2017-05-18T13:54:27.480Z,99.99
2017-05-18T13:55:27.470Z,99.99
2017-05-18T13:56:27.164Z,99.99
2017-05-18T13:57:27.459Z,99.99
2017-05-18T13:58:27.444Z,99.99
2017-05-18T13:59:27.141Z,99.99
2017-05-18T14:00:27.126Z,99.99
2017-05-18T14:01:27.425Z,99.99
2017-05-18T14:02:27.410Z,99.99
2017-05-18T14:03:27.402Z,99.99
2017-05-18T14:04:27.394Z,99.99
2017-05-18T14:05:27.387Z,99.99
2017-05-18T14:06:27.380Z,99.99
2017-05-18T14:07:27.069Z,99.99
2017-05-18T14:08:27.370Z,99.99
2017-05-18T14:09:27.361Z,99.99
2017-05-18T14:10:27.355Z,99.99
2017-05-18T14:11:27.042Z,99.99
2017-05-18T14:12:27.338Z,99.99
2017-05-18T14:13:27.330Z,99.99
2017-05-18T14:14:27.325Z,99.99
2017-05-18T14:15:27.313Z,99.99
2017-05-18T14:16:27.303Z,99.99
2017-05-18T14:17:26.994Z,99.99
2017-05-18T14:18:27.284Z,99.99
2017-05-18T14:19:27.284Z,99.99
2017-05-18T14:20:27.270Z,99.99
2017-05-18T14:21:26.966Z,99.99
2017-05-18T14:22:26.958Z,99.99
2017-05-18T14:23:26.950Z,99.99
2017-05-18T14:24:26.943Z,99.99
2017-05-18T14:25:26.937Z,99.99
2017-05-18T14:26:26.925Z,99.99
2017-05-18T14:27:26.913Z,99.99
2017-05-18T14:28:26.906Z,99.99
2017-05-18T14:29:26.898Z,99.99
2017-05-18T14:30:26.892Z,99.99
2017-05-18T14:31:26.884Z,99.99
2017-05-18T14:32:26.882Z,99.99
2017-05-18T14:33:27.180Z,99.99
2017-05-18T14:34:27.167Z,99.99
2017-05-18T14:35:27.158Z,99.99
2017-05-18T14:36:27.153Z,99.99
2017-05-18T14:37:27.145Z,99.99
2017-05-18T14:38:27.140Z,99.99
2017-05-18T14:39:27.204Z,99.99
2017-05-18T14:40:27.128Z,99.99
2017-05-18T14:41:27.127Z,99.99
2017-05-18T14:42:27.108Z,99.99
2017-05-18T14:43:27.110Z,99.99
2017-05-18T14:44:27.101Z,99.99
2017-05-18T14:45:27.086Z,99.99
2017-05-18T14:46:27.090Z,99.99
2017-05-18T14:47:27.082Z,99.99
2017-05-18T14:48:27.074Z,99.99
2017-05-18T14:49:27.062Z,99.99
2017-05-18T14:50:27.060Z,99.99
2017-05-18T14:51:27.047Z,99.99
2017-05-18T14:52:27.036Z,99.99
2017-05-18T14:53:27.036Z,99.99
2017-05-18T14:54:27.022Z,99.99
2017-05-18T14:55:27.016Z,99.99
2017-05-18T14:56:27.009Z,99.99
2017-05-18T14:57:27.007Z,99.99
2017-05-18T14:58:27.002Z,99.99
2017-05-18T14:59:26.689Z,99.99
2017-05-18T15:00:26.978Z,99.99
2017-05-18T15:01:26.668Z,99.99
2017-05-18T15:02:26.664Z,99.99
2017-05-18T15:03:26.953Z,99.99
2017-05-18T15:04:26.948Z,99.99
2017-05-18T15:05:26.947Z,99.99
2017-05-18T15:06:26.930Z,99.99
2017-05-18T15:07:26.927Z,99.99
2017-05-18T15:08:26.916Z,99.99
2017-05-18T15:09:26.918Z,99.99
2017-05-18T15:10:26.906Z,99.99
2017-05-18T15:11:26.895Z,99.99
2017-05-18T15:12:26.888Z,99.99
2017-05-18T15:13:26.877Z,99.99
2017-05-18T15:14:26.872Z,99.99
2017-05-18T15:15:26.861Z,99.99
2017-05-18T15:16:26.862Z,99.99
2017-05-18T15:17:26.845Z,99.99
2017-05-18T15:18:26.840Z,99.99
2017-05-18T15:19:26.832Z,99.99
2017-05-18T15:20:26.830Z,99.99
2017-05-18T15:21:26.816Z,99.99
2017-05-18T15:22:26.813Z,99.99
2017-05-18T15:23:26.806Z,99.99
2017-05-18T15:24:26.789Z,99.99
2017-05-18T15:25:26.786Z,99.99
2017-05-18T15:26:26.781Z,99.99
2017-05-18T15:27:26.766Z,99.99
2017-05-18T15:28:26.759Z,99.99
2017-05-18T15:29:26.446Z,99.99
2017-05-18T15:30:26.443Z,99.99
2017-05-18T15:31:26.741Z,99.99
2017-05-18T15:32:26.737Z,99.99
2017-05-18T15:33:26.719Z,99.99
2017-05-18T15:34:26.717Z,99.99
2017-05-18T15:35:26.701Z,99.99
2017-05-18T15:36:26.693Z,99.99
2017-05-18T15:37:26.694Z,99.99
2017-05-18T15:38:26.688Z,99.99
2017-05-18T15:39:26.669Z,99.99
2017-05-18T15:40:26.664Z,99.99
2017-05-18T15:41:26.659Z,99.99
2017-05-18T15:42:26.652Z,99.99
2017-05-18T15:43:26.644Z,99.99
2017-05-18T15:44:26.639Z,99.99
2017-05-18T15:45:26.628Z,99.99
2017-05-18T15:46:26.311Z,99.99
2017-05-18T15:47:26.607Z,99.99
2017-05-18T15:48:26.602Z,99.99
2017-05-18T15:49:26.592Z,99.99
2017-05-18T15:50:26.583Z,99.99
2017-05-18T15:51:26.579Z,99.99
2017-05-18T15:52:26.572Z,99.99
2017-05-18T15:53:26.575Z,99.99
2017-05-18T15:54:26.252Z,99.99
2017-05-18T15:55:26.548Z,99.99
2017-05-18T15:56:26.538Z,99.99
2017-05-18T15:57:26.527Z,99.99
2017-05-18T15:58:26.515Z,99.99
2017-05-18T15:59:26.516Z,99.99
2017-05-18T16:00:26.506Z,99.99
2017-05-18T16:01:26.492Z,99.99
2017-05-18T16:02:26.187Z,99.99
2017-05-18T16:03:26.481Z,99.99
2017-05-18T16:04:26.473Z,99.99
2017-05-18T16:05:26.465Z,99.99
2017-05-18T16:06:26.453Z,99.99
2017-05-18T16:07:26.447Z,99.99
2017-05-18T16:08:26.437Z,99.99
2017-05-18T16:09:26.430Z,99.99
2017-05-18T16:10:26.414Z,99.99
2017-05-18T16:11:26.406Z,99.99
2017-05-18T16:12:26.403Z,99.99
2017-05-18T16:13:26.401Z,99.99
2017-05-18T16:14:26.392Z,99.99
2017-05-18T16:15:26.372Z,99.99
2017-05-18T16:16:26.365Z,99.99
2017-05-18T16:17:26.362Z,99.99
2017-05-18T16:18:26.349Z,99.99
2017-05-18T16:19:26.343Z,99.99
2017-05-18T16:20:26.328Z,99.99
2017-05-18T16:21:26.329Z,99.99
2017-05-18T16:22:26.321Z,99.99
2017-05-18T16:23:26.305Z,99.99
2017-05-18T16:24:26.298Z,99.99
2017-05-18T16:25:26.297Z,99.99
2017-05-18T16:26:26.284Z,99.99
2017-05-18T16:27:26.271Z,99.99
2017-05-18T16:28:26.269Z,99.99
2017-05-18T16:29:26.256Z,99.99
2017-05-18T16:30:26.251Z,99.99
2017-05-18T16:31:26.244Z,99.99
2017-05-18T16:32:26.236Z,99.99
2017-05-18T16:33:26.226Z,99.99
2017-05-18T16:34:26.220Z,99.99
2017-05-18T16:35:26.205Z,99.99
2017-05-18T16:36:26.199Z,99.99
2017-05-18T16:37:26.185Z,99.99
2017-05-18T16:38:26.180Z,99.99
2017-05-18T16:39:26.172Z,99.99
2017-05-18T16:40:26.160Z,99.99
2017-05-18T16:41:26.161Z,99.99
2017-05-18T16:42:26.152Z,99.99
2017-05-18T16:43:26.136Z,99.99
2017-05-18T16:44:26.137Z,99.99
2017-05-18T16:45:26.120Z,99.99
2017-05-18T16:46:26.118Z,99.99
2017-05-18T16:47:25.805Z,99.99
2017-05-18T16:48:26.104Z,99.99
2017-05-18T16:49:26.097Z,99.99